Reed, Ohio
Current Conditions -  °F | °C
As of 4:52 AM on Wednesday 26 Nov 2014 (Local Time) from KMFD Reporting Station
Overcast Overcast  
Wind Chill: 22°   Ceiling: 1500
Heat Index: 28°   Visibility: 10mi
Dew Point: 22°   Wind: 6mph
Humidity: 78%   Direction: 20°NNE
Pressure: 30.11"   Gusts: NA
Location:  41.0654°N, 82.876°W
Report Text: KMFD 260952Z AUTO 02005KT 10SM OVC015 M02/M06 A3011 RMK AO2 SLP211 T10221056
Loading
Personal Weather Stations






























Interactive Weather Map New forecast layout! Learn more

10-Day Weather Forecast

Advertisements
Track Severe Weather on mobile